sensor_id;sensor_type;location;lat;lon;timestamp;P1;durP1;ratioP1;P2;durP2;ratioP2
9807;SDS011;4943;52.550;13.462;2024-03-02T00:01:22;21.90;;;20.10;;
9807;SDS011;4943;52.550;13.462;2024-03-02T00:03:50;21.87;;;20.07;;
9807;SDS011;4943;52.550;13.462;2024-03-02T00:06:19;21.63;;;19.87;;
9807;SDS011;4943;52.550;13.462;2024-03-02T00:08:48;21.73;;;19.97;;
9807;SDS011;4943;52.550;13.462;2024-03-02T00:11:18;21.80;;;20.00;;
9807;SDS011;4943;52.550;13.462;2024-03-02T00:13:46;21.60;;;19.83;;
9807;SDS011;4943;52.550;13.462;2024-03-02T00:16:14;21.40;;;19.67;;
9807;SDS011;4943;52.550;13.462;2024-03-02T00:18:44;21.40;;;19.67;;
9807;SDS011;4943;52.550;13.462;2024-03-02T00:21:12;21.77;;;20.00;;
9807;SDS011;4943;52.550;13.462;2024-03-02T00:23:44;21.63;;;19.87;;
9807;SDS011;4943;52.550;13.462;2024-03-02T00:26:12;21.53;;;19.77;;
9807;SDS011;4943;52.550;13.462;2024-03-02T00:28:43;21.27;;;19.53;;
9807;SDS011;4943;52.550;13.462;2024-03-02T00:31:12;22.03;;;20.20;;
9807;SDS011;4943;52.550;13.462;2024-03-02T00:33:40;22.00;;;20.17;;
9807;SDS011;4943;52.550;13.462;2024-03-02T00:36:10;21.73;;;19.97;;
9807;SDS011;4943;52.550;13.462;2024-03-02T00:38:46;21.63;;;19.87;;
9807;SDS011;4943;52.550;13.462;2024-03-02T00:41:16;21.77;;;20.00;;
9807;SDS011;4943;52.550;13.462;2024-03-02T00:43:52;21.40;;;19.67;;
9807;SDS011;4943;52.550;13.462;2024-03-02T00:46:26;21.60;;;19.83;;
9807;SDS011;4943;52.550;13.462;2024-03-02T00:48:57;21.47;;;19.73;;
9807;SDS011;4943;52.550;13.462;2024-03-02T00:51:27;21.63;;;19.87;;
9807;SDS011;4943;52.550;13.462;2024-03-02T00:53:58;21.63;;;19.87;;
9807;SDS011;4943;52.550;13.462;2024-03-02T00:56:27;22.13;;;20.30;;
9807;SDS011;4943;52.550;13.462;2024-03-02T00:58:57;22.37;;;20.50;;
9807;SDS011;4943;52.550;13.462;2024-03-02T01:01:25;22.00;;;20.17;;
9807;SDS011;4943;52.550;13.462;2024-03-02T01:03:53;22.17;;;20.30;;
9807;SDS011;4943;52.550;13.462;2024-03-02T01:06:21;22.27;;;20.40;;
9807;SDS011;4943;52.550;13.462;2024-03-02T01:08:50;22.07;;;20.23;;
9807;SDS011;4943;52.550;13.462;2024-03-02T01:11:19;22.03;;;20.20;;
9807;SDS011;4943;52.550;13.462;2024-03-02T01:13:49;21.23;;;19.50;;
9807;SDS011;4943;52.550;13.462;2024-03-02T01:16:19;21.43;;;19.70;;
9807;SDS011;4943;52.550;13.462;2024-03-02T01:18:48;21.73;;;19.97;;
9807;SDS011;4943;52.550;13.462;2024-03-02T01:21:18;21.70;;;19.93;;
9807;SDS011;4943;52.550;13.462;2024-03-02T01:23:46;21.90;;;20.10;;
9807;SDS011;4943;52.550;13.462;2024-03-02T01:26:13;21.53;;;19.80;;
9807;SDS011;4943;52.550;13.462;2024-03-02T01:28:42;21.07;;;19.40;;
9807;SDS011;4943;52.550;13.462;2024-03-02T01:31:10;21.50;;;19.77;;
9807;SDS011;4943;52.550;13.462;2024-03-02T01:33:40;21.63;;;19.87;;
9807;SDS011;4943;52.550;13.462;2024-03-02T01:36:08;21.30;;;19.57;;
9807;SDS011;4943;52.550;13.462;2024-03-02T01:38:36;21.63;;;19.87;;
9807;SDS011;4943;52.550;13.462;2024-03-02T01:41:04;21.50;;;19.77;;
9807;SDS011;4943;52.550;13.462;2024-03-02T01:43:32;21.73;;;19.97;;
9807;SDS011;4943;52.550;13.462;2024-03-02T01:46:02;21.50;;;19.77;;
9807;SDS011;4943;52.550;13.462;2024-03-02T01:48:31;21.33;;;19.60;;
9807;SDS011;4943;52.550;13.462;2024-03-02T01:51:00;21.97;;;20.13;;
9807;SDS011;4943;52.550;13.462;2024-03-02T01:53:28;21.77;;;20.00;;
9807;SDS011;4943;52.550;13.462;2024-03-02T01:55:56;21.53;;;19.77;;
9807;SDS011;4943;52.550;13.462;2024-03-02T01:58:24;21.67;;;19.90;;
9807;SDS011;4943;52.550;13.462;2024-03-02T02:00:53;21.40;;;19.67;;
9807;SDS011;4943;52.550;13.462;2024-03-02T02:03:21;20.97;;;19.30;;
9807;SDS011;4943;52.550;13.462;2024-03-02T02:05:49;21.30;;;19.57;;
9807;SDS011;4943;52.550;13.462;2024-03-02T02:08:18;21.30;;;19.57;;
9807;SDS011;4943;52.550;13.462;2024-03-02T02:10:46;21.27;;;19.53;;
9807;SDS011;4943;52.550;13.462;2024-03-02T02:13:15;21.57;;;19.83;;
9807;SDS011;4943;52.550;13.462;2024-03-02T02:15:43;20.93;;;19.27;;
9807;SDS011;4943;52.550;13.462;2024-03-02T02:18:11;21.53;;;19.80;;
9807;SDS011;4943;52.550;13.462;2024-03-02T02:20:39;21.57;;;19.80;;
9807;SDS011;4943;52.550;13.462;2024-03-02T02:23:09;21.17;;;19.47;;
9807;SDS011;4943;52.550;13.462;2024-03-02T02:25:37;21.37;;;19.63;;
9807;SDS011;4943;52.550;13.462;2024-03-02T02:28:05;20.73;;;19.10;;
9807;SDS011;4943;52.550;13.462;2024-03-02T02:30:33;22.80;;;20.87;;
9807;SDS011;4943;52.550;13.462;2024-03-02T02:33:01;22.70;;;20.77;;
9807;SDS011;4943;52.550;13.462;2024-03-02T02:35:29;22.80;;;20.87;;
9807;SDS011;4943;52.550;13.462;2024-03-02T02:37:57;22.77;;;20.83;;
9807;SDS011;4943;52.550;13.462;2024-03-02T02:40:27;22.63;;;20.70;;
9807;SDS011;4943;52.550;13.462;2024-03-02T02:42:57;22.33;;;20.47;;
9807;SDS011;4943;52.550;13.462;2024-03-02T02:45:25;22.33;;;20.47;;
9807;SDS011;4943;52.550;13.462;2024-03-02T02:47:53;22.43;;;20.57;;
9807;SDS011;4943;52.550;13.462;2024-03-02T02:50:21;22.27;;;20.40;;
9807;SDS011;4943;52.550;13.462;2024-03-02T02:52:49;22.47;;;20.60;;
9807;SDS011;4943;52.550;13.462;2024-03-02T02:55:17;22.37;;;20.50;;
9807;SDS011;4943;52.550;13.462;2024-03-02T02:57:47;22.93;;;21.00;;
9807;SDS011;4943;52.550;13.462;2024-03-02T03:00:15;22.37;;;20.50;;
9807;SDS011;4943;52.550;13.462;2024-03-02T03:02:47;22.53;;;20.63;;
9807;SDS011;4943;52.550;13.462;2024-03-02T03:05:17;22.83;;;20.90;;
9807;SDS011;4943;52.550;13.462;2024-03-02T03:07:46;22.40;;;20.53;;
9807;SDS011;4943;52.550;13.462;2024-03-02T03:10:16;22.83;;;20.90;;
9807;SDS011;4943;52.550;13.462;2024-03-02T03:12:44;22.93;;;21.00;;
9807;SDS011;4943;52.550;13.462;2024-03-02T03:15:14;22.77;;;20.83;;
9807;SDS011;4943;52.550;13.462;2024-03-02T03:17:43;22.33;;;20.47;;
9807;SDS011;4943;52.550;13.462;2024-03-02T03:20:12;22.83;;;20.90;;
9807;SDS011;4943;52.550;13.462;2024-03-02T03:22:41;23.00;;;21.03;;
9807;SDS011;4943;52.550;13.462;2024-03-02T03:25:09;22.63;;;20.73;;
9807;SDS011;4943;52.550;13.462;2024-03-02T03:27:37;22.37;;;20.50;;
9807;SDS011;4943;52.550;13.462;2024-03-02T03:30:07;22.43;;;20.57;;
9807;SDS011;4943;52.550;13.462;2024-03-02T03:32:36;22.10;;;20.30;;
9807;SDS011;4943;52.550;13.462;2024-03-02T03:35:04;22.20;;;20.37;;
9807;SDS011;4943;52.550;13.462;2024-03-02T03:37:33;21.17;;;19.50;;
9807;SDS011;4943;52.550;13.462;2024-03-02T03:40:01;21.50;;;19.77;;
9807;SDS011;4943;52.550;13.462;2024-03-02T03:42:33;21.17;;;19.50;;
9807;SDS011;4943;52.550;13.462;2024-03-02T03:45:01;21.07;;;19.43;;
9807;SDS011;4943;52.550;13.462;2024-03-02T03:47:32;20.60;;;19.03;;
9807;SDS011;4943;52.550;13.462;2024-03-02T03:50:00;21.03;;;19.40;;
9807;SDS011;4943;52.550;13.462;2024-03-02T03:52:33;20.93;;;19.30;;
9807;SDS011;4943;52.550;13.462;2024-03-02T03:55:01;20.77;;;19.17;;
9807;SDS011;4943;52.550;13.462;2024-03-02T03:57:29;21.13;;;19.50;;
9807;SDS011;4943;52.550;13.462;2024-03-02T03:59:57;21.30;;;19.63;;
9807;SDS011;4943;52.550;13.462;2024-03-02T04:02:26;20.93;;;19.30;;
9807;SDS011;4943;52.550;13.462;2024-03-02T04:04:56;21.50;;;19.80;;
9807;SDS011;4943;52.550;13.462;2024-03-02T04:07:24;21.23;;;19.57;;
9807;SDS011;4943;52.550;13.462;2024-03-02T04:09:52;21.03;;;19.40;;
9807;SDS011;4943;52.550;13.462;2024-03-02T04:12:20;20.97;;;19.33;;
9807;SDS011;4943;52.550;13.462;2024-03-02T04:14:48;20.83;;;19.27;;
9807;SDS011;4943;52.550;13.462;2024-03-02T04:17:16;20.43;;;18.90;;
9807;SDS011;4943;52.550;13.462;2024-03-02T04:19:44;20.23;;;18.70;;
9807;SDS011;4943;52.550;13.462;2024-03-02T04:22:14;20.03;;;18.57;;
9807;SDS011;4943;52.550;13.462;2024-03-02T04:24:50;20.20;;;18.70;;
9807;SDS011;4943;52.550;13.462;2024-03-02T04:27:18;20.47;;;18.93;;
9807;SDS011;4943;52.550;13.462;2024-03-02T04:29:46;20.70;;;19.13;;
9807;SDS011;4943;52.550;13.462;2024-03-02T04:32:15;20.17;;;18.70;;
9807;SDS011;4943;52.550;13.462;2024-03-02T04:34:43;20.13;;;18.63;;
9807;SDS011;4943;52.550;13.462;2024-03-02T04:37:11;20.33;;;18.80;;
9807;SDS011;4943;52.550;13.462;2024-03-02T04:39:41;20.47;;;18.93;;
9807;SDS011;4943;52.550;13.462;2024-03-02T04:42:09;20.47;;;18.93;;
9807;SDS011;4943;52.550;13.462;2024-03-02T04:44:37;19.90;;;18.43;;
9807;SDS011;4943;52.550;13.462;2024-03-02T04:47:05;20.10;;;18.63;;
9807;SDS011;4943;52.550;13.462;2024-03-02T04:49:33;20.23;;;18.70;;
9807;SDS011;4943;52.550;13.462;2024-03-02T04:52:02;20.57;;;19.03;;
9807;SDS011;4943;52.550;13.462;2024-03-02T04:54:31;20.17;;;18.63;;
9807;SDS011;4943;52.550;13.462;2024-03-02T04:57:20;20.50;;;18.97;;
9807;SDS011;4943;52.550;13.462;2024-03-02T04:59:48;20.53;;;19.00;;
9807;SDS011;4943;52.550;13.462;2024-03-02T05:02:16;20.30;;;18.80;;
9807;SDS011;4943;52.550;13.462;2024-03-02T05:04:44;20.30;;;18.77;;
9807;SDS011;4943;52.550;13.462;2024-03-02T05:07:12;20.40;;;18.87;;
9807;SDS011;4943;52.550;13.462;2024-03-02T05:09:41;19.97;;;18.50;;
9807;SDS011;4943;52.550;13.462;2024-03-02T05:12:09;20.07;;;18.60;;
9807;SDS011;4943;52.550;13.462;2024-03-02T05:14:55;19.77;;;18.33;;
9807;SDS011;4943;52.550;13.462;2024-03-02T05:17:23;19.97;;;18.50;;
9807;SDS011;4943;52.550;13.462;2024-03-02T05:19:52;19.97;;;18.50;;
9807;SDS011;4943;52.550;13.462;2024-03-02T05:22:20;19.60;;;18.17;;
9807;SDS011;4943;52.550;13.462;2024-03-02T05:24:49;20.13;;;18.67;;
9807;SDS011;4943;52.550;13.462;2024-03-02T05:27:17;20.03;;;18.57;;
9807;SDS011;4943;52.550;13.462;2024-03-02T05:29:46;19.97;;;18.50;;
9807;SDS011;4943;52.550;13.462;2024-03-02T05:32:14;19.97;;;18.53;;
9807;SDS011;4943;52.550;13.462;2024-03-02T05:34:42;21.83;;;20.07;;
9807;SDS011;4943;52.550;13.462;2024-03-02T05:37:10;21.53;;;19.80;;
9807;SDS011;4943;52.550;13.462;2024-03-02T05:39:38;21.27;;;19.60;;
9807;SDS011;4943;52.550;13.462;2024-03-02T05:42:08;20.80;;;19.23;;
9807;SDS011;4943;52.550;13.462;2024-03-02T05:44:36;20.70;;;19.13;;
9807;SDS011;4943;52.550;13.462;2024-03-02T05:47:04;20.30;;;18.77;;
9807;SDS011;4943;52.550;13.462;2024-03-02T05:49:35;20.37;;;18.83;;
9807;SDS011;4943;52.550;13.462;2024-03-02T05:52:03;20.40;;;18.87;;
9807;SDS011;4943;52.550;13.462;2024-03-02T05:54:31;20.47;;;18.93;;
9807;SDS011;4943;52.550;13.462;2024-03-02T05:56:59;20.57;;;19.03;;
9807;SDS011;4943;52.550;13.462;2024-03-02T05:59:44;20.43;;;18.90;;
9807;SDS011;4943;52.550;13.462;2024-03-02T06:02:12;20.23;;;18.70;;
9807;SDS011;4943;52.550;13.462;2024-03-02T06:04:41;20.30;;;18.77;;
9807;SDS011;4943;52.550;13.462;2024-03-02T06:07:09;20.83;;;19.27;;
9807;SDS011;4943;52.550;13.462;2024-03-02T06:09:37;20.77;;;19.20;;
9807;SDS011;4943;52.550;13.462;2024-03-02T06:12:05;20.53;;;18.97;;
9807;SDS011;4943;52.550;13.462;2024-03-02T06:14:33;20.37;;;18.83;;
9807;SDS011;4943;52.550;13.462;2024-03-02T06:17:03;20.23;;;18.70;;
9807;SDS011;4943;52.550;13.462;2024-03-02T06:19:31;20.50;;;18.97;;
9807;SDS011;4943;52.550;13.462;2024-03-02T06:21:59;20.23;;;18.73;;
9807;SDS011;4943;52.550;13.462;2024-03-02T06:24:27;20.07;;;18.60;;
9807;SDS011;4943;52.550;13.462;2024-03-02T06:26:55;20.03;;;18.57;;
9807;SDS011;4943;52.550;13.462;2024-03-02T06:29:23;20.30;;;18.80;;
9807;SDS011;4943;52.550;13.462;2024-03-02T06:31:51;19.77;;;18.33;;
9807;SDS011;4943;52.550;13.462;2024-03-02T06:34:22;20.07;;;18.60;;
9807;SDS011;4943;52.550;13.462;2024-03-02T06:36:50;20.43;;;18.90;;
9807;SDS011;4943;52.550;13.462;2024-03-02T06:39:18;19.50;;;18.10;;
9807;SDS011;4943;52.550;13.462;2024-03-02T06:41:46;19.43;;;18.03;;
9807;SDS011;4943;52.550;13.462;2024-03-02T06:44:14;19.57;;;18.17;;
9807;SDS011;4943;52.550;13.462;2024-03-02T06:46:42;19.60;;;18.20;;
9807;SDS011;4943;52.550;13.462;2024-03-02T06:49:10;19.50;;;18.10;;
9807;SDS011;4943;52.550;13.462;2024-03-02T06:51:40;19.47;;;18.07;;
9807;SDS011;4943;52.550;13.462;2024-03-02T06:54:08;19.70;;;18.30;;
9807;SDS011;4943;52.550;13.462;2024-03-02T06:56:36;19.73;;;18.33;;
9807;SDS011;4943;52.550;13.462;2024-03-02T06:59:05;19.47;;;18.07;;
9807;SDS011;4943;52.550;13.462;2024-03-02T07:01:33;19.90;;;18.47;;
9807;SDS011;4943;52.550;13.462;2024-03-02T07:04:02;20.07;;;18.63;;
9807;SDS011;4943;52.550;13.462;2024-03-02T07:06:33;19.97;;;18.53;;
9807;SDS011;4943;52.550;13.462;2024-03-02T07:09:02;23.20;;;21.27;;
9807;SDS011;4943;52.550;13.462;2024-03-02T07:11:31;22.67;;;20.80;;
9807;SDS011;4943;52.550;13.462;2024-03-02T07:14:00;20.43;;;18.93;;
9807;SDS011;4943;52.550;13.462;2024-03-02T07:16:29;20.33;;;18.83;;
9807;SDS011;4943;52.550;13.462;2024-03-02T07:18:59;21.30;;;19.63;;
9807;SDS011;4943;52.550;13.462;2024-03-02T07:21:28;20.57;;;19.07;;
9807;SDS011;4943;52.550;13.462;2024-03-02T07:23:56;20.10;;;18.63;;
9807;SDS011;4943;52.550;13.462;2024-03-02T07:26:26;19.87;;;18.43;;
9807;SDS011;4943;52.550;13.462;2024-03-02T07:28:57;20.20;;;18.73;;
9807;SDS011;4943;52.550;13.462;2024-03-02T07:31:25;20.00;;;18.57;;
9807;SDS011;4943;52.550;13.462;2024-03-02T07:33:53;20.20;;;18.73;;
9807;SDS011;4943;52.550;13.462;2024-03-02T07:36:21;20.00;;;18.57;;
9807;SDS011;4943;52.550;13.462;2024-03-02T07:38:49;20.23;;;18.73;;
9807;SDS011;4943;52.550;13.462;2024-03-02T07:41:18;20.67;;;19.17;;
9807;SDS011;4943;52.550;13.462;2024-03-02T07:43:48;20.60;;;19.10;;
9807;SDS011;4943;52.550;13.462;2024-03-02T07:46:16;20.43;;;18.93;;
9807;SDS011;4943;52.550;13.462;2024-03-02T07:48:44;20.60;;;19.10;;
9807;SDS011;4943;52.550;13.462;2024-03-02T07:51:12;20.60;;;19.10;;
9807;SDS011;4943;52.550;13.462;2024-03-02T07:53:40;20.47;;;18.97;;
9807;SDS011;4943;52.550;13.462;2024-03-02T07:56:09;20.63;;;19.13;;
9807;SDS011;4943;52.550;13.462;2024-03-02T07:58:37;20.63;;;19.13;;
9807;SDS011;4943;52.550;13.462;2024-03-02T08:01:07;20.53;;;19.03;;
9807;SDS011;4943;52.550;13.462;2024-03-02T08:03:35;20.67;;;19.17;;
9807;SDS011;4943;52.550;13.462;2024-03-02T08:06:04;20.80;;;19.30;;
9807;SDS011;4943;52.550;13.462;2024-03-02T08:08:33;20.33;;;18.83;;
9807;SDS011;4943;52.550;13.462;2024-03-02T08:11:01;20.60;;;19.10;;
9807;SDS011;4943;52.550;13.462;2024-03-02T08:13:29;20.60;;;19.10;;
9807;SDS011;4943;52.550;13.462;2024-03-02T08:15:57;20.80;;;19.30;;
9807;SDS011;4943;52.550;13.462;2024-03-02T08:18:27;20.80;;;19.30;;
9807;SDS011;4943;52.550;13.462;2024-03-02T08:20:55;20.90;;;19.40;;
9807;SDS011;4943;52.550;13.462;2024-03-02T08:23:24;21.10;;;19.60;;
9807;SDS011;4943;52.550;13.462;2024-03-02T08:25:52;21.40;;;19.80;;
9807;SDS011;4943;52.550;13.462;2024-03-02T08:28:20;21.13;;;19.60;;
9807;SDS011;4943;52.550;13.462;2024-03-02T08:30:48;21.50;;;19.90;;
9807;SDS011;4943;52.550;13.462;2024-03-02T08:33:16;21.30;;;19.70;;
9807;SDS011;4943;52.550;13.462;2024-03-02T08:35:46;21.40;;;19.80;;
9807;SDS011;4943;52.550;13.462;2024-03-02T08:38:14;21.50;;;19.90;;
9807;SDS011;4943;52.550;13.462;2024-03-02T08:40:42;21.60;;;20.00;;
9807;SDS011;4943;52.550;13.462;2024-03-02T08:43:11;21.50;;;19.90;;
9807;SDS011;4943;52.550;13.462;2024-03-02T08:45:39;21.60;;;20.00;;
9807;SDS011;4943;52.550;13.462;2024-03-02T08:48:08;21.80;;;20.20;;
9807;SDS011;4943;52.550;13.462;2024-03-02T08:50:36;21.83;;;20.23;;
9807;SDS011;4943;52.550;13.462;2024-03-02T08:53:06;21.67;;;20.07;;
9807;SDS011;4943;52.550;13.462;2024-03-02T08:55:34;21.77;;;20.17;;
9807;SDS011;4943;52.550;13.462;2024-03-02T08:58:02;21.60;;;20.00;;
9807;SDS011;4943;52.550;13.462;2024-03-02T09:00:30;21.63;;;20.03;;
9807;SDS011;4943;52.550;13.462;2024-03-02T09:02:59;21.80;;;20.20;;
9807;SDS011;4943;52.550;13.462;2024-03-02T09:05:27;21.63;;;20.03;;
9807;SDS011;4943;52.550;13.462;2024-03-02T09:07:55;21.90;;;20.30;;
9807;SDS011;4943;52.550;13.462;2024-03-02T09:10:24;21.50;;;19.90;;
9807;SDS011;4943;52.550;13.462;2024-03-02T09:12:54;21.70;;;20.10;;
9807;SDS011;4943;52.550;13.462;2024-03-02T09:15:22;21.60;;;20.00;;
9807;SDS011;4943;52.550;13.462;2024-03-02T09:17:50;21.70;;;20.10;;
9807;SDS011;4943;52.550;13.462;2024-03-02T09:20:19;21.70;;;20.10;;
9807;SDS011;4943;52.550;13.462;2024-03-02T09:22:47;21.83;;;20.17;;
9807;SDS011;4943;52.550;13.462;2024-03-02T09:25:15;22.17;;;20.50;;
9807;SDS011;4943;52.550;13.462;2024-03-02T09:27:44;22.50;;;20.80;;
9807;SDS011;4943;52.550;13.462;2024-03-02T09:30:13;23.73;;;21.80;;
9807;SDS011;4943;52.550;13.462;2024-03-02T09:32:41;22.23;;;20.57;;
9807;SDS011;4943;52.550;13.462;2024-03-02T09:35:12;22.77;;;21.07;;
9807;SDS011;4943;52.550;13.462;2024-03-02T09:37:40;23.60;;;21.73;;
9807;SDS011;4943;52.550;13.462;2024-03-02T09:40:08;24.93;;;22.87;;
9807;SDS011;4943;52.550;13.462;2024-03-02T09:42:37;24.53;;;22.57;;
9807;SDS011;4943;52.550;13.462;2024-03-02T09:45:08;23.30;;;21.47;;
9807;SDS011;4943;52.550;13.462;2024-03-02T09:47:36;22.57;;;20.83;;
9807;SDS011;4943;52.550;13.462;2024-03-02T09:50:06;22.77;;;21.00;;
9807;SDS011;4943;52.550;13.462;2024-03-02T09:52:34;23.27;;;21.40;;
9807;SDS011;4943;52.550;13.462;2024-03-02T09:55:05;24.87;;;22.77;;
9807;SDS011;4943;52.550;13.462;2024-03-02T09:57:33;22.17;;;20.47;;
9807;SDS011;4943;52.550;13.462;2024-03-02T10:00:04;23.00;;;21.23;;
9807;SDS011;4943;52.550;13.462;2024-03-02T10:02:34;22.67;;;20.97;;
9807;SDS011;4943;52.550;13.462;2024-03-02T10:05:03;22.73;;;21.00;;
9807;SDS011;4943;52.550;13.462;2024-03-02T10:07:31;22.50;;;20.80;;
9807;SDS011;4943;52.550;13.462;2024-03-02T10:10:00;22.40;;;20.70;;
9807;SDS011;4943;52.550;13.462;2024-03-02T10:12:40;22.60;;;20.90;;
9807;SDS011;4943;52.550;13.462;2024-03-02T10:15:09;22.90;;;21.13;;
9807;SDS011;4943;52.550;13.462;2024-03-02T10:17:38;25.53;;;23.37;;
9807;SDS011;4943;52.550;13.462;2024-03-02T10:20:22;24.93;;;22.87;;
9807;SDS011;4943;52.550;13.462;2024-03-02T10:22:51;24.40;;;22.40;;
9807;SDS011;4943;52.550;13.462;2024-03-02T10:25:29;24.33;;;22.37;;
9807;SDS011;4943;52.550;13.462;2024-03-02T10:28:16;23.90;;;21.97;;
9807;SDS011;4943;52.550;13.462;2024-03-02T10:30:44;23.80;;;21.90;;
9807;SDS011;4943;52.550;13.462;2024-03-02T10:33:17;25.27;;;23.10;;
9807;SDS011;4943;52.550;13.462;2024-03-02T10:35:45;24.93;;;22.87;;
9807;SDS011;4943;52.550;13.462;2024-03-02T10:38:17;24.93;;;22.80;;
9807;SDS011;4943;52.550;13.462;2024-03-02T10:40:46;24.63;;;22.60;;
9807;SDS011;4943;52.550;13.462;2024-03-02T10:43:15;25.50;;;23.37;;
9807;SDS011;4943;52.550;13.462;2024-03-02T10:45:44;24.13;;;22.23;;
9807;SDS011;4943;52.550;13.462;2024-03-02T10:48:17;25.13;;;23.03;;
9807;SDS011;4943;52.550;13.462;2024-03-02T10:50:45;25.60;;;23.43;;
9807;SDS011;4943;52.550;13.462;2024-03-02T10:53:13;26.43;;;24.10;;
9807;SDS011;4943;52.550;13.462;2024-03-02T10:55:42;25.37;;;23.23;;
9807;SDS011;4943;52.550;13.462;2024-03-02T10:58:10;24.37;;;22.40;;
9807;SDS011;4943;52.550;13.462;2024-03-02T11:00:41;25.07;;;23.00;;
9807;SDS011;4943;52.550;13.462;2024-03-02T11:03:12;24.97;;;22.93;;
9807;SDS011;4943;52.550;13.462;2024-03-02T11:05:44;24.13;;;22.23;;
9807;SDS011;4943;52.550;13.462;2024-03-02T11:08:13;24.27;;;22.37;;
9807;SDS011;4943;52.550;13.462;2024-03-02T11:10:48;24.00;;;22.10;;
9807;SDS011;4943;52.550;13.462;2024-03-02T11:13:20;24.00;;;22.10;;
9807;SDS011;4943;52.550;13.462;2024-03-02T11:15:52;23.97;;;22.07;;
9807;SDS011;4943;52.550;13.462;2024-03-02T11:18:26;24.13;;;22.20;;
9807;SDS011;4943;52.550;13.462;2024-03-02T11:20:56;24.37;;;22.40;;
9807;SDS011;4943;52.550;13.462;2024-03-02T11:23:31;26.47;;;24.10;;
9807;SDS011;4943;52.550;13.462;2024-03-02T11:26:18;28.13;;;25.50;;
9807;SDS011;4943;52.550;13.462;2024-03-02T11:28:49;28.37;;;25.70;;
9807;SDS011;4943;52.550;13.462;2024-03-02T11:31:18;28.27;;;25.60;;
9807;SDS011;4943;52.550;13.462;2024-03-02T11:33:46;27.80;;;25.23;;
9807;SDS011;4943;52.550;13.462;2024-03-02T11:36:15;28.30;;;25.60;;
9807;SDS011;4943;52.550;13.462;2024-03-02T11:38:44;27.93;;;25.30;;
9807;SDS011;4943;52.550;13.462;2024-03-02T11:41:13;27.17;;;24.70;;
9807;SDS011;4943;52.550;13.462;2024-03-02T11:43:41;28.37;;;25.70;;
9807;SDS011;4943;52.550;13.462;2024-03-02T11:46:11;27.73;;;25.17;;
9807;SDS011;4943;52.550;13.462;2024-03-02T11:48:40;27.87;;;25.30;;
9807;SDS011;4943;52.550;13.462;2024-03-02T11:51:08;27.40;;;24.93;;
9807;SDS011;4943;52.550;13.462;2024-03-02T11:53:39;26.87;;;24.47;;
9807;SDS011;4943;52.550;13.462;2024-03-02T11:56:09;26.83;;;24.50;;
9807;SDS011;4943;52.550;13.462;2024-03-02T11:58:39;26.23;;;23.97;;
9807;SDS011;4943;52.550;13.462;2024-03-02T12:01:10;28.27;;;25.67;;
9807;SDS011;4943;52.550;13.462;2024-03-02T12:03:40;27.33;;;24.87;;
9807;SDS011;4943;52.550;13.462;2024-03-02T12:06:08;27.27;;;24.90;;
9807;SDS011;4943;52.550;13.462;2024-03-02T12:08:36;28.03;;;25.47;;
9807;SDS011;4943;52.550;13.462;2024-03-02T12:11:06;29.90;;;27.03;;
9807;SDS011;4943;52.550;13.462;2024-03-02T12:13:35;32.73;;;29.20;;
9807;SDS011;4943;52.550;13.462;2024-03-02T12:16:03;33.87;;;30.20;;
9807;SDS011;4943;52.550;13.462;2024-03-02T12:18:32;33.93;;;30.20;;
9807;SDS011;4943;52.550;13.462;2024-03-02T12:20:59;35.17;;;31.27;;
9807;SDS011;4943;52.550;13.462;2024-03-02T12:23:29;34.17;;;30.40;;
9807;SDS011;4943;52.550;13.462;2024-03-02T12:25:58;34.73;;;30.93;;
9807;SDS011;4943;52.550;13.462;2024-03-02T12:28:27;35.53;;;31.10;;
9807;SDS011;4943;52.550;13.462;2024-03-02T12:31:00;35.10;;;31.27;;
9807;SDS011;4943;52.550;13.462;2024-03-02T12:33:28;34.27;;;30.47;;
9807;SDS011;4943;52.550;13.462;2024-03-02T12:35:56;34.40;;;30.60;;
9807;SDS011;4943;52.550;13.462;2024-03-02T12:38:25;35.57;;;30.67;;
9807;SDS011;4943;52.550;13.462;2024-03-02T12:40:55;35.07;;;30.97;;
9807;SDS011;4943;52.550;13.462;2024-03-02T12:43:29;34.13;;;30.40;;
9807;SDS011;4943;52.550;13.462;2024-03-02T12:45:58;33.93;;;30.27;;
9807;SDS011;4943;52.550;13.462;2024-03-02T12:48:26;33.73;;;30.10;;
9807;SDS011;4943;52.550;13.462;2024-03-02T12:50:54;35.10;;;31.27;;
9807;SDS011;4943;52.550;13.462;2024-03-02T12:53:22;34.47;;;30.70;;
9807;SDS011;4943;52.550;13.462;2024-03-02T12:55:51;35.67;;;31.17;;
9807;SDS011;4943;52.550;13.462;2024-03-02T12:58:22;33.63;;;30.03;;
9807;SDS011;4943;52.550;13.462;2024-03-02T13:00:55;33.40;;;29.83;;
9807;SDS011;4943;52.550;13.462;2024-03-02T13:03:36;33.87;;;30.23;;
9807;SDS011;4943;52.550;13.462;2024-03-02T13:06:05;34.07;;;30.40;;
9807;SDS011;4943;52.550;13.462;2024-03-02T13:08:34;34.07;;;30.37;;
9807;SDS011;4943;52.550;13.462;2024-03-02T13:11:02;38.10;;;32.07;;
9807;SDS011;4943;52.550;13.462;2024-03-02T13:13:33;36.70;;;31.20;;
9807;SDS011;4943;52.550;13.462;2024-03-02T13:16:03;35.33;;;31.13;;
9807;SDS011;4943;52.550;13.462;2024-03-02T13:18:33;36.57;;;31.77;;
9807;SDS011;4943;52.550;13.462;2024-03-02T13:21:01;36.87;;;32.00;;
9807;SDS011;4943;52.550;13.462;2024-03-02T13:23:30;37.27;;;31.90;;
9807;SDS011;4943;52.550;13.462;2024-03-02T13:25:58;38.27;;;32.50;;
9807;SDS011;4943;52.550;13.462;2024-03-02T13:28:26;37.93;;;32.27;;
9807;SDS011;4943;52.550;13.462;2024-03-02T13:30:54;38.67;;;32.27;;
9807;SDS011;4943;52.550;13.462;2024-03-02T13:33:23;37.87;;;32.00;;
9807;SDS011;4943;52.550;13.462;2024-03-02T13:35:52;37.50;;;31.50;;
9807;SDS011;4943;52.550;13.462;2024-03-02T13:38:20;37.13;;;31.83;;
9807;SDS011;4943;52.550;13.462;2024-03-02T13:40:48;36.70;;;31.50;;
9807;SDS011;4943;52.550;13.462;2024-03-02T13:43:18;35.00;;;30.87;;
9807;SDS011;4943;52.550;13.462;2024-03-02T13:45:46;34.57;;;30.70;;
9807;SDS011;4943;52.550;13.462;2024-03-02T13:48:14;34.67;;;30.67;;
9807;SDS011;4943;52.550;13.462;2024-03-02T13:50:44;35.70;;;31.00;;
9807;SDS011;4943;52.550;13.462;2024-03-02T13:53:12;37.80;;;31.80;;
9807;SDS011;4943;52.550;13.462;2024-03-02T13:55:41;35.77;;;31.13;;
9807;SDS011;4943;52.550;13.462;2024-03-02T13:58:09;35.10;;;31.00;;
9807;SDS011;4943;52.550;13.462;2024-03-02T14:00:38;35.20;;;30.83;;
9807;SDS011;4943;52.550;13.462;2024-03-02T14:03:08;34.70;;;30.80;;
9807;SDS011;4943;52.550;13.462;2024-03-02T14:05:37;34.77;;;30.87;;
9807;SDS011;4943;52.550;13.462;2024-03-02T14:08:06;36.97;;;31.70;;
9807;SDS011;4943;52.550;13.462;2024-03-02T14:10:35;37.30;;;31.80;;
9807;SDS011;4943;52.550;13.462;2024-03-02T14:13:03;36.70;;;31.70;;
9807;SDS011;4943;52.550;13.462;2024-03-02T14:15:31;36.30;;;31.40;;
9807;SDS011;4943;52.550;13.462;2024-03-02T14:17:59;36.00;;;31.50;;
9807;SDS011;4943;52.550;13.462;2024-03-02T14:20:28;35.70;;;31.03;;
9807;SDS011;4943;52.550;13.462;2024-03-02T14:22:56;34.87;;;31.03;;
9807;SDS011;4943;52.550;13.462;2024-03-02T14:25:26;34.33;;;30.37;;
9807;SDS011;4943;52.550;13.462;2024-03-02T14:27:57;35.40;;;31.20;;
9807;SDS011;4943;52.550;13.462;2024-03-02T14:30:45;34.80;;;30.87;;
9807;SDS011;4943;52.550;13.462;2024-03-02T14:33:13;34.73;;;30.93;;
9807;SDS011;4943;52.550;13.462;2024-03-02T14:35:43;34.50;;;30.70;;
9807;SDS011;4943;52.550;13.462;2024-03-02T14:38:12;34.07;;;30.37;;
9807;SDS011;4943;52.550;13.462;2024-03-02T14:40:43;34.07;;;30.40;;
9807;SDS011;4943;52.550;13.462;2024-03-02T14:43:11;34.40;;;30.67;;
9807;SDS011;4943;52.550;13.462;2024-03-02T14:45:39;34.43;;;30.60;;